Flight Track Log - Related Links

Times and Time Zones

All times are in EST time to prevent confusion due to time zone crossing. See the UAL3767 flight status page for this flight to view local times or setup timezone preferences in your user account.

Time Position Orientation Groundspeed Altitude Reporting Facility
EST Latitude Longitude Course Direction KTS MPH feet Rate Location/Type
Fri 10:40:01 PM 41.9667 -87.9333 146° Southeast 167 192 2,000  Level Chicago TRACON
Fri 10:40:55 PM 41.9167 -87.9333 180° South 258 297 3,700 2,684 Climbing Chicago TRACON
Fri 10:41:55 PM 41.8500 -87.8833 151° Southeast 274 315 7,100 3,061 Climbing Chicago TRACON
Fri 10:42:33 PM 41.8097 -87.8472 146° Southeast 277 319 8,700 2,460 Climbing Chicago Center
Fri 10:43:35 PM 41.7356 -87.7925 151° Southeast 299 344 11,200 2,829 Climbing Chicago Center
Fri 10:44:00 PM 41.4831 -87.3311 143° Southeast  Level Estimated
Fri 10:44:36 PM 41.6567 -87.7381 153° Southeast 314 361 14,500  Level Chicago Center
Fri 10:45:00 PM 41.3836 -87.2169 146° Southeast  Level Estimated
Fri 10:45:37 PM 41.5725 -87.6775 152° Southeast 346 398 16,200  Level Chicago Center
Fri 10:46:38 PM 41.4811 -87.6122 152° Southeast 368 423 18,500 2,164 Climbing Chicago Center
Fri 10:47:39 PM 41.3800 -87.5661 161° South 391 450 20,600 1,721 Climbing Chicago Center
Fri 10:48:40 PM 41.2678 -87.5458 172° South 400 460 22,000 1,475 Climbing Chicago Center
Fri 10:49:41 PM 41.1578 -87.4956 161° South 427 491 23,600 1,574 Climbing Chicago Center
Fri 10:50:42 PM 41.0542 -87.4081 148° Southeast 439 505 25,200 1,525 Climbing Chicago Center
Fri 10:51:43 PM 40.9489 -87.3183 147° Southeast 449 517 26,700 885 Climbing Chicago Center
Fri 10:52:44 PM 40.8397 -87.2256 147° Southeast 465 535 27,000 148 Climbing Chicago Center
Fri 10:53:45 PM 40.7242 -87.1278 147° Southeast 489 563 27,000 -98 Level Chicago Center
Fri 10:54:46 PM 40.5936 -87.0169 147° Southeast 491 565 26,800 -639 Descending Chicago Center
Fri 10:55:47 PM 40.4825 -86.9239 147° Southeast 480 552 25,700 -1,033 Descending Chicago Center
Fri 10:56:48 PM 40.3731 -86.8311 147° Southeast 472 543 24,700 -836 Descending Chicago Center
Fri 10:57:49 PM 40.2639 -86.7397 147° Southeast 468 539 24,000 -344 Descending Chicago Center
Fri 10:58:50 PM 40.1592 -86.6531 148° Southeast 448 516 24,000  Level Chicago Center
Fri 10:59:49 PM 40.0539 -86.5653 147° Southeast 447 514 24,000  Level Indianapolis Center
Fri 11:00:50 PM 39.9461 -86.4761 148° Southeast 456 525 24,000 -934 Level Indianapolis Center
Fri 11:01:51 PM 39.8406 -86.3881 147° Southeast 457 526 22,100 -1,918 Descending Indianapolis Center
Fri 11:02:52 PM 39.7786 -86.2600 122° Southeast 436 502 20,100 -2,016 Descending Indianapolis Center
Fri 11:03:53 PM 39.7331 -86.1217 113° Southeast 406 467 18,000 -1,967 Descending Indianapolis Center
Fri 11:04:54 PM 39.6903 -85.9947 114° Southeast 387 445 16,100 -1,785 Descending Indianapolis Center
Fri 11:05:54 PM 39.6469 -85.8683 114° Southeast 384 442 14,400 -1,587 Descending Indianapolis Center
Fri 11:06:55 PM 39.6033 -85.7400 114° Southeast 390 449 12,900 -1,475 Descending Indianapolis Center
Fri 11:07:56 PM 39.5600 -85.6136 114° Southeast 386 444 11,400 -934 Descending Indianapolis Center
Fri 11:08:57 PM 39.5186 -85.4914 114° Southeast 376 433 11,000 -246 Descending Indianapolis Center
Fri 11:09:58 PM 39.4606 -85.3856 125° Southeast 364 419 10,900 -639 Descending Indianapolis Center
Fri 11:10:59 PM 39.3825 -85.2953 138° Southeast 315 362 9,700 -1,082 Descending Indianapolis Center
Fri 11:12:00 PM 39.3225 -85.2250 138° Southeast 299 344 8,700 -984 Descending Indianapolis Center
Fri 11:13:01 PM 39.2628 -85.1542 137° Southeast 293 337 7,700 -984 Descending Indianapolis Center
Fri 11:14:02 PM 39.2047 -85.0886 139° Southeast 284 327 6,700 -984 Descending Indianapolis Center
Fri 11:15:03 PM 39.1500 -85.0217 136° Southeast 276 318 5,700 -836 Descending Indianapolis Center
Fri 11:16:04 PM 39.0958 -84.9586 138° Southeast 267 307 5,000 -694 Descending Indianapolis Center
Fri 11:17:04 PM 39.0400 -84.8714 129° Southeast 273 314 4,300 -1,200 Descending Indianapolis Center
Fri 11:17:49 PM 39.0500 -84.8000 80° East 247 284 2,900 -1,600 Descending Cincinnati TRACON
Fri 11:18:49 PM 39.0500 -84.7333 90° East 182 209 1,500 -1,400 Descending Cincinnati TRACON

Login

Don't have an account? Register now (free) for customized features, flight alerts, and more!